WEATHER/FLIGHT PLANNING

Hattiesburg Radar

 

 

 

 

Weather Links

Flight Planning Links

 

METAR

2014/07/28 03:53 KHBG 280353Z AUTO 24004KT 10SM CLR 29/24 A3004 RMK AO2 SLP168 T02890244

TAF

2014/07/27 18:30 TAF KHBG 271727Z 2718/2818 25007KT P6SM SCT050 SCT250 FM280100 00000KT P6SM SCT250 FM281100 22002KT 4SM BR FEW250 FM281300 26006KT 6SM HZ FEW250